Hub


Voltar

 INFORMAÇÕES METEOROLÓGICAS

METAR FOR PAFE


ADDS - METARS form results

(0840 UTC 25 March 2019)
Data provider http://aviationweather.gov/metar/data/
 
METAR text: PAFE 250756Z AUTO 06006KT 10SM CLR 00/M01 A3030 RMK AO2 SLP273 T00001006 FZRANO $
Conditions at: PAFE (KAKE , AK, US) observed 0756 UTC 25 March 2019
Temperature: 0.0°C (32°F)
Dewpoint: -0.6°C (31°F) [RH = 96%]
Pressure (altimeter): 30.30 inches Hg (1026.2 mb)
[Sea-level pressure: 1027.3 mb]
Winds: from the ENE (60 degrees) at 7 MPH (6 knots; 3.1 m/s)
Visibility: 10 or more miles (16+ km)
Ceiling: at least 12,000 feet AGL
Clouds: sky clear below 12,000 feet AGL
Weather:
SOME DATA ABOVE MAY BE INACCURATE!!!
"$" is an indication the sensor requires maintenance


 MAPA DO AEROPORTO


 INFORMAÇÕES DA PISTA

Pista 11 Tamanho da pista 4000 ft Largura da pista 100 ft
Elevação da pista 150 ft Ranhura da pista 0 ft Proa da pista 130
Pista 29 Tamanho da pista 4000 ft Largura da pista 100 ft
Elevação da pista 172 ft Ranhura da pista 0 ft Proa da pista 310

 FREQUÊNCIAS DO AEROPORTO

Tipo AWOS Nome AWOS 3 Frequência 135.25 MHZ
Tipo CNTR Nome ANCHORAGE Frequência 118 MHZ
Tipo CTAF Nome CTAF Frequência 122.9 MHZ
Tipo FSS Nome SITKA RDO Frequência 121.3 MHZ

 AUXÍLIOS DE NAVEGAÇÃO PRÓXIMOS AO AEROPORTO

Tipo NDB-DME Nome Kake Frequência 223 KHZ